Hawthorne, Wisconsin
Current Conditions -  °F | °C
As of 9:35 PM on Monday 20 Oct 2014 (Local Time) from KOLG Reporting Station
Overcast Overcast  
Wind Chill: 45°   Ceiling: 3100
Heat Index: 45°   Visibility: 10mi
Dew Point: 37°   Wind: 0mph
Humidity: 76%   Direction: NA
Pressure: 30.09"   Gusts: NA
Location:  46.5°N, 91.86°W
Report Text: KOLG 210235Z AUTO 00000KT 10SM OVC031 07/03 A3009 RMK AO1
Loading
Personal Weather Stations






























Interactive Weather Map
Tropical Storm Tracking
New forecast layout! Learn more

10-Day Weather Forecast

Advertisements
Track Severe Weather on mobile